Time;durP1;ratioP1;P1;durP2;ratioP2;P2;SDS_P1;SDS_P2;PMS_P1;PMS_P2;Temp;Humidity;BMP_temperature;BMP_pressure;BME280_temperature;BME280_humidity;BME280_pressure;Samples;Min_cycle;Max_cycle;Signal;HPM_P1;HPM_P2
2021/11/10 00:00:43;;;;;;;4.38;3.22;;;18.10;59.20;;;;;;4975861;28;20057;-61
2021/11/10 00:03:09;;;;;;;3.60;3.10;;;18.10;59.10;;;;;;4975266;28;20022;-61
2021/11/10 00:05:35;;;;;;;4.75;3.30;;;18.10;59.00;;;;;;4983269;28;20085;-63
2021/11/10 00:08:02;;;;;;;4.85;3.30;;;18.10;59.00;;;;;;4972812;28;20098;-62
2021/11/10 00:10:27;;;;;;;4.35;3.30;;;18.10;59.00;;;;;;4961756;28;20085;-62
2021/11/10 00:12:55;;;;;;;5.85;3.75;;;18.10;59.00;;;;;;4972844;28;20039;-62
2021/11/10 00:15:20;;;;;;;4.03;3.30;;;18.10;58.90;;;;;;4972640;28;20041;-62
2021/11/10 00:17:46;;;;;;;5.13;3.47;;;18.10;58.80;;;;;;4980015;28;20034;-57
2021/11/10 00:20:11;;;;;;;3.88;3.40;;;18.10;58.80;;;;;;4968662;28;20050;-61
2021/11/10 00:22:37;;;;;;;3.20;2.90;;;18.10;58.80;;;;;;4976324;28;20081;-63
2021/11/10 00:25:03;;;;;;;4.22;3.08;;;18.10;58.80;;;;;;4980777;28;20042;-62
2021/11/10 00:27:29;;;;;;;3.50;3.20;;;18.10;58.80;;;;;;4965418;28;20027;-62
2021/11/10 00:29:54;;;;;;;5.00;2.75;;;18.10;58.80;;;;;;4968433;28;20034;-61
2021/11/10 00:32:20;;;;;;;3.25;2.95;;;18.10;58.70;;;;;;4964224;28;20038;-62
2021/11/10 00:34:45;;;;;;;5.60;3.25;;;18.10;58.70;;;;;;4966294;28;20108;-61
2021/11/10 00:37:11;;;;;;;4.65;3.10;;;18.10;58.70;;;;;;4967553;28;20023;-62
2021/11/10 00:39:36;;;;;;;3.75;2.85;;;18.10;58.70;;;;;;4981837;28;20114;-62
2021/11/10 00:42:02;;;;;;;3.42;2.75;;;18.10;58.70;;;;;;4978572;28;20089;-62
2021/11/10 00:44:27;;;;;;;4.22;2.90;;;18.10;58.70;;;;;;4976296;28;20050;-61
2021/11/10 00:46:53;;;;;;;3.28;2.70;;;18.10;58.70;;;;;;4971778;28;20112;-62
2021/11/10 00:49:18;;;;;;;3.15;2.53;;;18.10;58.70;;;;;;4971214;28;20394;-61
2021/11/10 00:51:44;;;;;;;3.30;2.50;;;18.10;58.70;;;;;;4986630;28;20038;-61
2021/11/10 00:54:09;;;;;;;3.00;2.58;;;18.00;58.60;;;;;;4978268;28;20042;-61
2021/11/10 00:56:35;;;;;;;4.00;2.80;;;18.00;58.50;;;;;;4974809;28;20033;-61
2021/11/10 00:59:00;;;;;;;4.45;2.88;;;18.10;58.50;;;;;;4977427;28;20249;-61
2021/11/10 01:01:26;;;;;;;3.25;2.63;;;18.10;58.50;;;;;;4978524;28;20043;-62
2021/11/10 01:03:51;;;;;;;3.50;2.72;;;18.10;58.40;;;;;;4975603;28;20109;-61
2021/11/10 01:06:17;;;;;;;3.03;2.70;;;18.10;58.30;;;;;;4967100;28;20486;-62
2021/11/10 01:08:43;;;;;;;3.40;2.85;;;18.10;58.30;;;;;;4979587;28;20383;-62
2021/11/10 01:11:08;;;;;;;3.13;2.47;;;18.10;58.20;;;;;;4985637;28;20049;-61
2021/11/10 01:13:34;;;;;;;2.72;2.33;;;18.10;58.20;;;;;;4974543;28;20507;-61
2021/11/10 01:16:00;;;;;;;3.28;2.67;;;18.10;58.20;;;;;;4972987;28;20038;-59
2021/11/10 01:18:25;;;;;;;2.85;2.55;;;18.00;58.20;;;;;;4975050;28;20051;-59
2021/11/10 01:20:51;;;;;;;3.20;2.42;;;18.00;58.10;;;;;;4977898;28;20449;-61
2021/11/10 01:23:16;;;;;;;2.25;2.05;;;18.00;58.10;;;;;;4978871;28;20095;-61
2021/11/10 01:25:42;;;;;;;2.47;2.22;;;18.00;58.10;;;;;;4984793;28;20092;-60
2021/11/10 01:28:08;;;;;;;3.65;2.38;;;18.00;58.10;;;;;;4982224;28;20031;-61
2021/11/10 01:30:34;;;;;;;2.67;2.47;;;18.00;58.10;;;;;;4982332;28;20080;-61
2021/11/10 01:32:59;;;;;;;2.95;2.47;;;18.00;58.10;;;;;;4981056;28;20513;-59
2021/11/10 01:35:25;;;;;;;3.88;2.47;;;18.00;58.00;;;;;;4983137;28;20563;-62
2021/11/10 01:37:50;;;;;;;3.42;2.65;;;18.00;58.00;;;;;;4983865;28;20054;-62
2021/11/10 01:40:17;;;;;;;3.28;2.53;;;18.00;58.00;;;;;;4979685;28;20076;-62
2021/11/10 01:42:43;;;;;;;2.70;2.25;;;18.00;58.10;;;;;;4977730;28;20399;-62
2021/11/10 01:45:09;;;;;;;2.53;2.25;;;18.00;58.00;;;;;;4954933;28;20097;-62
2021/11/10 01:47:35;;;;;;;3.17;2.40;;;18.00;58.00;;;;;;4969119;28;20050;-62
2021/11/10 01:50:00;;;;;;;3.20;2.20;;;17.90;57.90;;;;;;4982762;28;20050;-62
2021/11/10 01:52:26;;;;;;;2.60;2.40;;;17.90;58.00;;;;;;4980246;28;20633;-61
2021/11/10 01:54:52;;;;;;;2.92;2.38;;;17.90;58.00;;;;;;4973356;28;20042;-62
2021/11/10 01:57:17;;;;;;;3.28;2.80;;;17.90;57.90;;;;;;4976002;28;20031;-62
2021/11/10 01:59:45;;;;;;;2.88;2.40;;;17.90;57.80;;;;;;4976321;28;20430;-61
2021/11/10 02:02:19;;;;;;;3.25;2.78;;;17.90;57.90;;;;;;4977611;28;20678;-61
2021/11/10 02:04:47;;;;;;;5.40;2.30;;;17.90;57.90;;;;;;4965533;28;20053;-62
2021/11/10 02:07:12;;;;;;;3.17;2.10;;;17.90;57.90;;;;;;4976820;28;20026;-62
2021/11/10 02:09:38;;;;;;;2.88;2.20;;;17.90;57.90;;;;;;4977311;28;20037;-61
2021/11/10 02:12:04;;;;;;;2.90;2.20;;;17.90;58.40;;;;;;4978115;28;20038;-60
2021/11/10 02:14:30;;;;;;;2.97;2.20;;;17.90;57.80;;;;;;4965551;28;20041;-61
2021/11/10 02:16:55;;;;;;;3.17;2.40;;;17.90;57.80;;;;;;4974099;28;20026;-62
2021/11/10 02:19:22;;;;;;;2.67;2.35;;;17.90;57.80;;;;;;4978178;28;20038;-62
2021/11/10 02:21:50;;;;;;;2.28;2.08;;;17.90;57.70;;;;;;4972301;28;20042;-63
2021/11/10 02:24:16;;;;;;;2.60;1.90;;;17.90;57.70;;;;;;4977917;28;20035;-62
2021/11/10 02:26:43;;;;;;;4.15;2.17;;;17.90;57.70;;;;;;4974123;28;20517;-62
2021/11/10 02:29:10;;;;;;;2.10;1.90;;;17.90;57.70;;;;;;4975373;28;20830;-62
2021/11/10 02:31:36;;;;;;;2.60;2.40;;;17.90;57.70;;;;;;4976450;28;20034;-62
2021/11/10 02:34:02;;;;;;;5.10;2.78;;;17.90;57.70;;;;;;4974895;28;20035;-62
2021/11/10 02:36:28;;;;;;;2.80;2.40;;;17.90;57.50;;;;;;4974228;28;20062;-62
2021/11/10 02:38:53;;;;;;;3.83;2.10;;;18.00;57.30;;;;;;4976021;28;20540;-61
2021/11/10 02:41:19;;;;;;;2.63;2.10;;;18.00;57.10;;;;;;4982966;28;20525;-62
2021/11/10 02:43:44;;;;;;;2.65;2.15;;;18.00;57.00;;;;;;4975356;28;20045;-61
2021/11/10 02:46:10;;;;;;;2.03;1.83;;;18.10;56.90;;;;;;4977593;28;20560;-61
2021/11/10 02:48:35;;;;;;;2.33;2.00;;;18.10;56.80;;;;;;4976730;28;20117;-61
2021/11/10 02:51:01;;;;;;;2.15;1.95;;;18.20;56.70;;;;;;4967146;28;20031;-62
2021/11/10 02:53:31;;;;;;;2.55;2.00;;;18.10;56.50;;;;;;4980371;28;20113;-62
2021/11/10 02:55:57;;;;;;;2.58;2.00;;;18.20;56.50;;;;;;4979008;28;20383;-61
2021/11/10 02:58:22;;;;;;;2.67;2.35;;;18.20;56.40;;;;;;4981623;28;20032;-61
2021/11/10 03:00:48;;;;;;;2.63;2.30;;;18.20;56.30;;;;;;4983960;28;20049;-61
2021/11/10 03:03:13;;;;;;;2.38;2.08;;;18.20;56.30;;;;;;4971864;28;20105;-61
2021/11/10 03:05:47;;;;;;;2.80;2.30;;;18.20;56.30;;;;;;4980499;28;20030;-61
2021/11/10 03:08:16;;;;;;;2.30;2.00;;;18.20;56.20;;;;;;4970439;28;20026;-61
2021/11/10 03:10:42;;;;;;;2.28;2.08;;;18.20;56.80;;;;;;4970297;28;20130;-61
2021/11/10 03:13:07;;;;;;;2.80;2.00;;;18.20;56.10;;;;;;4967150;28;20503;-63
2021/11/10 03:15:37;;;;;;;2.58;2.03;;;18.20;56.20;;;;;;4983917;28;20030;-63
2021/11/10 03:18:02;;;;;;;1.98;1.80;;;18.20;56.20;;;;;;4974720;28;20041;-61
2021/11/10 03:20:28;;;;;;;2.28;1.90;;;18.20;56.20;;;;;;4971589;28;20030;-61
2021/11/10 03:22:53;;;;;;;3.00;2.40;;;18.20;56.20;;;;;;4966668;28;20490;-61
2021/11/10 03:25:19;;;;;;;2.30;2.10;;;18.20;56.30;;;;;;4979440;28;20083;-61
2021/11/10 03:27:44;;;;;;;2.33;2.13;;;18.10;56.20;;;;;;4984506;28;20042;-61
2021/11/10 03:30:10;;;;;;;2.17;1.88;;;18.10;56.20;;;;;;4974740;28;20407;-62
2021/11/10 03:32:35;;;;;;;2.95;2.10;;;18.10;56.30;;;;;;4973174;28;20159;-61
2021/11/10 03:35:01;;;;;;;1.92;1.80;;;18.10;56.30;;;;;;4969646;28;20413;-61
2021/11/10 03:37:26;;;;;;;1.77;1.67;;;18.10;56.30;;;;;;4979680;28;20033;-62
2021/11/10 03:39:52;;;;;;;2.17;1.90;;;18.10;56.40;;;;;;4982168;28;20061;-62
2021/11/10 03:42:17;;;;;;;2.30;1.92;;;18.10;56.40;;;;;;4972819;28;20033;-61
2021/11/10 03:44:43;;;;;;;2.55;1.80;;;18.00;56.30;;;;;;4975422;28;20536;-62
2021/11/10 03:47:08;;;;;;;2.00;1.80;;;18.00;56.40;;;;;;4974954;28;20250;-61
2021/11/10 03:49:34;;;;;;;2.38;2.00;;;18.00;56.40;;;;;;4976032;28;20050;-61
2021/11/10 03:51:59;;;;;;;2.40;2.00;;;18.00;56.50;;;;;;4964445;28;20070;-62
2021/11/10 03:54:25;;;;;;;2.10;1.90;;;18.00;56.40;;;;;;4975990;28;20037;-61
2021/11/10 03:56:50;;;;;;;2.75;2.20;;;18.00;56.40;;;;;;4974822;28;20405;-60
2021/11/10 03:59:16;;;;;;;2.35;2.15;;;18.00;56.40;;;;;;4975085;28;20030;-62
2021/11/10 04:01:41;;;;;;;2.80;2.13;;;18.00;56.40;;;;;;4976431;28;20046;-61
2021/11/10 04:04:07;;;;;;;2.50;1.83;;;17.90;56.30;;;;;;4974339;28;20569;-62
2021/11/10 04:06:33;;;;;;;3.33;2.00;;;18.00;56.40;;;;;;4979024;28;20533;-61
2021/11/10 04:08:59;;;;;;;2.35;2.15;;;18.00;56.40;;;;;;4970872;28;20559;-62
2021/11/10 04:11:24;;;;;;;1.83;1.73;;;18.00;56.40;;;;;;4983520;28;20551;-61
2021/11/10 04:13:50;;;;;;;2.60;2.15;;;17.90;56.30;;;;;;4977318;28;20564;-61
2021/11/10 04:16:20;;;;;;;2.92;2.10;;;18.00;56.40;;;;;;4974389;28;20524;-61
2021/11/10 04:18:49;;;;;;;2.22;1.73;;;18.00;56.30;;;;;;4975201;28;20449;-61
2021/11/10 04:21:15;;;;;;;1.80;1.63;;;17.90;56.30;;;;;;4976304;28;20124;-62
2021/11/10 04:23:40;;;;;;;2.40;2.20;;;17.90;56.20;;;;;;4966223;28;20494;-61
2021/11/10 04:26:06;;;;;;;3.28;2.25;;;17.90;56.20;;;;;;4980895;28;20493;-61
2021/11/10 04:28:31;;;;;;;2.58;2.08;;;17.90;56.30;;;;;;4979906;28;20039;-62
2021/11/10 04:30:57;;;;;;;3.53;1.95;;;18.00;56.20;;;;;;4981441;28;20038;-61
2021/11/10 04:33:22;;;;;;;2.28;2.08;;;17.90;56.10;;;;;;4987357;28;20093;-62
2021/11/10 04:35:48;;;;;;;3.40;2.42;;;17.90;56.10;;;;;;4976612;28;20038;-60
2021/11/10 04:38:14;;;;;;;2.50;2.17;;;17.90;56.00;;;;;;4971124;28;20053;-62
2021/11/10 04:40:39;;;;;;;2.20;2.00;;;17.90;56.00;;;;;;4975157;28;20081;-62
2021/11/10 04:43:05;;;;;;;2.45;2.08;;;18.00;56.00;;;;;;4985161;28;20523;-61
2021/11/10 04:45:33;;;;;;;2.75;1.85;;;18.00;56.00;;;;;;4986744;28;20490;-62
2021/11/10 04:47:59;;;;;;;2.05;1.80;;;17.90;56.00;;;;;;4973158;28;20035;-62
2021/11/10 04:50:24;;;;;;;3.33;2.25;;;17.90;56.00;;;;;;4981383;28;20402;-62
2021/11/10 04:52:50;;;;;;;2.78;2.03;;;17.90;55.90;;;;;;4972927;28;20039;-61
2021/11/10 04:55:16;;;;;;;2.25;1.50;;;17.90;55.90;;;;;;4977905;28;20066;-63
2021/11/10 04:57:41;;;;;;;2.17;1.98;;;18.00;55.90;;;;;;4978790;28;20038;-61
2021/11/10 05:00:09;;;;;;;2.10;1.90;;;17.90;55.70;;;;;;4978792;28;20038;-62
2021/11/10 05:02:35;;;;;;;2.53;1.90;;;18.00;55.80;;;;;;4976090;28;20505;-61
2021/11/10 05:05:00;;;;;;;2.55;2.08;;;18.00;55.80;;;;;;4968283;28;20027;-61
2021/11/10 05:07:26;;;;;;;2.05;1.80;;;17.90;55.60;;;;;;4975953;28;20050;-61
2021/11/10 05:09:52;;;;;;;1.95;1.70;;;18.00;55.60;;;;;;4967011;28;20051;-62
2021/11/10 05:12:17;;;;;;;5.80;3.80;;;18.00;55.60;;;;;;4978905;28;20038;-62
2021/11/10 05:14:43;;;;;;;18.67;12.63;;;18.00;55.60;;;;;;4984085;28;20034;-63
2021/11/10 05:17:09;;;;;;;22.17;13.13;;;18.00;55.60;;;;;;4974885;28;20106;-62
2021/11/10 05:19:34;;;;;;;25.30;15.02;;;18.00;55.70;;;;;;4981425;28;20471;-61
2021/11/10 05:22:00;;;;;;;21.45;13.95;;;17.90;56.00;;;;;;4986345;28;20038;-62
2021/11/10 05:24:26;;;;;;;22.60;14.65;;;17.90;56.10;;;;;;4983949;28;20025;-62
2021/11/10 05:26:51;;;;;;;21.13;14.93;;;17.80;56.20;;;;;;4985688;28;20026;-62
2021/11/10 05:29:17;;;;;;;20.83;13.43;;;17.90;56.40;;;;;;4978424;28;20593;-62
2021/11/10 05:31:42;;;;;;;23.95;14.45;;;17.90;56.50;;;;;;4972723;28;20026;-59
2021/11/10 05:34:08;;;;;;;23.00;15.23;;;17.80;56.90;;;;;;4974342;28;20023;-62
2021/11/10 05:36:33;;;;;;;24.60;15.05;;;17.80;57.20;;;;;;4974565;28;20026;-63
2021/11/10 05:38:59;;;;;;;20.15;13.75;;;17.90;57.20;;;;;;4975706;28;20050;-58
2021/11/10 05:41:24;;;;;;;19.52;13.00;;;17.90;57.20;;;;;;4975532;28;20110;-61
2021/11/10 05:43:50;;;;;;;17.83;11.40;;;17.80;57.10;;;;;;4985214;28;20026;-62
2021/11/10 05:46:15;;;;;;;22.50;11.63;;;17.90;57.20;;;;;;4965585;28;20075;-61
2021/11/10 05:48:41;;;;;;;18.77;11.07;;;17.90;57.10;;;;;;4967457;28;20023;-61
2021/11/10 05:51:06;;;;;;;22.17;10.90;;;17.90;57.20;;;;;;4966022;28;20238;-61
2021/11/10 05:53:32;;;;;;;17.55;10.10;;;17.80;57.20;;;;;;4968751;28;20034;-52
2021/11/10 05:55:58;;;;;;;13.90;10.05;;;17.90;57.20;;;;;;4974069;28;20121;-60
2021/11/10 05:58:24;;;;;;;17.17;8.52;;;17.80;57.10;;;;;;4973403;28;20042;-56
2021/11/10 06:00:50;;;;;;;17.65;8.85;;;17.90;57.10;;;;;;4966457;28;20035;-61
2021/11/10 06:03:16;;;;;;;15.60;8.10;;;17.80;56.90;;;;;;4968852;28;20073;-60
2021/11/10 06:05:41;;;;;;;17.23;8.80;;;17.90;56.90;;;;;;4957118;28;20030;-62
2021/11/10 06:08:06;;;;;;;14.20;8.80;;;17.90;56.80;;;;;;4978992;28;20046;-61
2021/11/10 06:10:32;;;;;;;19.77;8.27;;;17.90;56.70;;;;;;4973377;28;20030;-63
2021/11/10 06:12:57;;;;;;;23.65;9.88;;;17.90;56.60;;;;;;4974993;28;20558;-62
2021/11/10 06:15:23;;;;;;;33.08;13.93;;;17.90;56.70;;;;;;4967311;28;20053;-62
2021/11/10 06:17:48;;;;;;;23.00;12.40;;;17.90;57.30;;;;;;4967615;28;20043;-63
2021/11/10 06:20:15;;;;;;;26.73;14.13;;;17.90;57.60;;;;;;4970104;28;20037;-62
2021/11/10 06:22:40;;;;;;;30.00;12.32;;;17.90;57.60;;;;;;4970461;28;20378;-62
2021/11/10 06:25:06;;;;;;;28.27;12.13;;;17.90;57.60;;;;;;4972895;28;20045;-62
2021/11/10 06:27:32;;;;;;;23.00;11.18;;;17.90;57.60;;;;;;4964357;28;20108;-58
2021/11/10 06:29:57;;;;;;;28.80;12.38;;;17.90;57.50;;;;;;4962597;28;20035;-62
2021/11/10 06:32:23;;;;;;;26.55;11.93;;;17.90;57.40;;;;;;4963217;28;20207;-57
2021/11/10 06:34:48;;;;;;;19.05;9.68;;;17.90;57.40;;;;;;4968246;28;20506;-59
2021/11/10 06:37:14;;;;;;;28.35;10.35;;;17.90;57.60;;;;;;4973304;28;20045;-61
2021/11/10 06:39:40;;;;;;;19.10;9.82;;;17.80;57.50;;;;;;4975733;28;20023;-62
2021/11/10 06:42:06;;;;;;;18.48;9.55;;;17.80;57.50;;;;;;4977461;28;20034;-61
2021/11/10 06:44:31;;;;;;;21.75;9.65;;;17.80;57.60;;;;;;4964784;28;20054;-56
2021/11/10 06:46:59;;;;;;;17.55;8.57;;;17.80;57.50;;;;;;4971837;28;20425;-62
2021/11/10 06:49:28;;;;;;;18.98;9.07;;;17.80;57.50;;;;;;4965521;28;20031;-55
2021/11/10 06:51:54;;;;;;;16.55;9.25;;;17.80;57.50;;;;;;4965125;28;20035;-63
2021/11/10 06:54:20;;;;;;;14.88;8.18;;;17.80;57.40;;;;;;4968635;28;20030;-63
2021/11/10 06:56:46;;;;;;;13.13;8.13;;;17.80;57.30;;;;;;4973939;28;20081;-63
2021/11/10 06:59:11;;;;;;;18.25;8.93;;;17.80;57.70;;;;;;4984192;28;20177;-62
2021/11/10 07:01:36;;;;;;;13.27;7.05;;;17.80;57.30;;;;;;4968159;28;20120;-57
2021/11/10 07:04:02;;;;;;;16.30;8.75;;;17.70;57.20;;;;;;4976354;28;20449;-61
2021/11/10 07:06:27;;;;;;;13.07;7.43;;;17.70;57.20;;;;;;4968584;28;20035;-57
2021/11/10 07:08:53;;;;;;;11.63;7.13;;;17.70;57.20;;;;;;4971822;28;20037;-60
2021/11/10 07:11:18;;;;;;;14.63;7.53;;;17.70;57.30;;;;;;4971215;28;20154;-59
2021/11/10 07:13:44;;;;;;;11.13;6.95;;;17.70;57.40;;;;;;4979430;28;20501;-59
2021/11/10 07:16:09;;;;;;;12.27;7.25;;;17.70;57.40;;;;;;4967289;28;20082;-59
2021/11/10 07:18:35;;;;;;;12.38;5.93;;;17.70;57.40;;;;;;4968727;28;20091;-62
2021/11/10 07:21:01;;;;;;;10.18;6.32;;;17.70;57.40;;;;;;4975295;28;20038;-58
2021/11/10 07:23:26;;;;;;;12.60;6.88;;;17.70;57.30;;;;;;4978845;28;20050;-62
2021/11/10 07:25:52;;;;;;;9.00;6.28;;;17.70;57.30;;;;;;4971996;28;20075;-57
2021/11/10 07:28:17;;;;;;;9.50;6.13;;;17.70;57.20;;;;;;4967881;28;20607;-62
2021/11/10 07:30:45;;;;;;;10.98;6.93;;;17.70;57.10;;;;;;4973282;28;20251;-62
2021/11/10 07:33:10;;;;;;;10.23;5.95;;;17.70;56.90;;;;;;4972555;28;20030;-62
2021/11/10 07:35:36;;;;;;;10.35;6.03;;;17.80;56.70;;;;;;4982189;28;20039;-62
2021/11/10 07:38:01;;;;;;;11.90;5.97;;;17.90;56.50;;;;;;4983299;28;20117;-62
2021/11/10 07:40:27;;;;;;;9.07;6.40;;;17.90;56.40;;;;;;4973087;28;20026;-56
2021/11/10 07:42:53;;;;;;;10.07;5.63;;;17.90;56.20;;;;;;4980665;28;20047;-62
2021/11/10 07:45:31;;;;;;;7.80;5.93;;;18.00;56.10;;;;;;4968491;28;20089;-63
2021/11/10 07:47:59;;;;;;;8.90;6.13;;;18.10;56.10;;;;;;4974698;28;20054;-62
2021/11/10 07:50:25;;;;;;;9.68;5.75;;;18.10;56.00;;;;;;4978530;28;20201;-58
2021/11/10 07:52:50;;;;;;;8.20;5.53;;;18.10;55.90;;;;;;4978004;28;20781;-58
2021/11/10 07:55:16;;;;;;;7.35;5.60;;;18.10;55.90;;;;;;4969250;28;20121;-62
2021/11/10 07:57:41;;;;;;;8.18;5.93;;;18.10;55.90;;;;;;4976213;28;20121;-62
2021/11/10 08:00:12;;;;;;;8.30;5.88;;;18.10;55.80;;;;;;4975499;28;21657;-57
2021/11/10 08:02:38;;;;;;;6.80;5.28;;;18.10;55.80;;;;;;4976743;28;20042;-62
2021/11/10 08:05:04;;;;;;;6.82;5.05;;;18.10;55.80;;;;;;4962229;28;20038;-62
2021/11/10 08:07:30;;;;;;;7.72;5.50;;;18.10;55.70;;;;;;4978608;28;20031;-62
2021/11/10 08:09:55;;;;;;;6.72;5.63;;;18.10;55.80;;;;;;4977644;28;20038;-62
2021/11/10 08:12:21;;;;;;;7.88;5.38;;;18.10;55.70;;;;;;4972047;28;20037;-62
2021/11/10 08:14:46;;;;;;;7.45;5.25;;;18.10;55.70;;;;;;4969840;28;20035;-61
2021/11/10 08:17:12;;;;;;;7.88;5.15;;;18.10;55.70;;;;;;4970936;28;20089;-53
2021/11/10 08:19:37;;;;;;;7.40;5.53;;;18.20;55.80;;;;;;4974406;28;20578;-54
2021/11/10 08:22:03;;;;;;;7.15;5.40;;;18.20;55.80;;;;;;4970477;28;20031;-62
2021/11/10 08:24:29;;;;;;;8.43;5.65;;;18.10;55.70;;;;;;4974540;28;20210;-62
2021/11/10 08:26:55;;;;;;;8.20;5.25;;;18.20;55.80;;;;;;4966069;28;20033;-61
2021/11/10 08:29:22;;;;;;;7.93;4.90;;;18.20;55.80;;;;;;4982941;28;20733;-59
2021/11/10 08:31:48;;;;;;;6.90;4.57;;;18.20;55.80;;;;;;4970356;28;20046;-60
2021/11/10 08:34:13;;;;;;;7.63;4.90;;;18.10;55.70;;;;;;4977880;28;20022;-62
2021/11/10 08:36:39;;;;;;;6.20;4.25;;;18.20;55.80;;;;;;4970295;28;20104;-62
2021/11/10 08:39:04;;;;;;;7.15;4.70;;;18.20;55.70;;;;;;4978289;28;20043;-62
2021/11/10 08:41:30;;;;;;;5.03;3.80;;;18.10;55.70;;;;;;4979816;28;20082;-58
2021/11/10 08:43:57;;;;;;;6.35;4.80;;;18.10;55.70;;;;;;4978214;28;20057;-62
2021/11/10 08:46:23;;;;;;;6.60;4.55;;;18.20;55.80;;;;;;4969163;28;20027;-57
2021/11/10 08:48:49;;;;;;;6.68;4.70;;;18.20;55.80;;;;;;4978802;28;20046;-61
2021/11/10 08:51:14;;;;;;;7.18;4.80;;;18.20;55.80;;;;;;4969996;28;20731;-61
2021/11/10 08:53:40;;;;;;;6.22;5.07;;;18.20;55.80;;;;;;4974127;28;20069;-59
2021/11/10 08:56:06;;;;;;;7.03;4.55;;;18.20;55.70;;;;;;4968331;28;20046;-61
2021/11/10 08:58:31;;;;;;;6.22;4.78;;;18.20;55.70;;;;;;4964175;28;20436;-59
2021/11/10 09:00:57;;;;;;;7.47;4.70;;;18.20;55.70;;;;;;4993987;23;20041;-63
2021/11/10 09:03:23;;;;;;;5.93;4.88;;;18.10;55.70;;;;;;4951872;28;20518;-63
2021/11/10 09:05:49;;;;;;;6.78;4.82;;;18.20;55.80;;;;;;4927920;28;20094;-64
2021/11/10 09:08:15;;;;;;;7.57;5.20;;;18.20;55.80;;;;;;4949417;28;20466;-64
2021/11/10 09:10:40;;;;;;;5.03;4.53;;;18.20;55.80;;;;;;4932244;28;20034;-65
2021/11/10 09:13:06;;;;;;;8.13;5.07;;;18.10;55.70;;;;;;4949667;28;20031;-65
2021/11/10 09:15:33;;;;;;;7.10;5.50;;;18.20;55.70;;;;;;4971825;28;20118;-63
2021/11/10 09:17:59;;;;;;;5.60;4.60;;;18.10;55.70;;;;;;4951518;28;20047;-63
2021/11/10 09:20:25;;;;;;;6.35;5.07;;;18.10;55.70;;;;;;4951444;28;20038;-63
2021/11/10 09:22:52;;;;;;;6.70;4.80;;;18.10;55.70;;;;;;4955857;28;20039;-66
2021/11/10 09:25:18;;;;;;;7.03;5.05;;;18.10;55.80;;;;;;4958495;28;20035;-64
2021/11/10 09:27:44;;;;;;;6.22;5.47;;;18.10;55.70;;;;;;4962909;28;20035;-65
2021/11/10 09:30:11;;;;;;;8.23;5.65;;;18.10;55.80;;;;;;4950066;28;20041;-66
2021/11/10 09:32:37;;;;;;;6.00;4.88;;;18.10;55.70;;;;;;4959796;28;20027;-64
2021/11/10 09:35:06;;;;;;;6.30;5.18;;;18.10;55.80;;;;;;4964483;28;20094;-66
2021/11/10 09:37:31;;;;;;;10.65;5.93;;;18.10;55.80;;;;;;4961386;28;20561;-65
2021/11/10 09:39:57;;;;;;;6.75;5.00;;;18.10;55.80;;;;;;4962334;28;20142;-66
2021/11/10 09:42:23;;;;;;;7.05;5.55;;;18.10;55.80;;;;;;4960182;28;20039;-65
2021/11/10 09:44:50;;;;;;;6.80;5.18;;;18.10;55.80;;;;;;4953859;28;20038;-64
2021/11/10 09:47:16;;;;;;;8.00;5.88;;;18.10;55.80;;;;;;4958934;28;20039;-64
2021/11/10 09:49:42;;;;;;;5.07;4.55;;;18.10;55.90;;;;;;4947754;28;20035;-65
2021/11/10 09:52:07;;;;;;;8.27;5.70;;;18.10;55.90;;;;;;4964880;28;20039;-66
2021/11/10 09:54:33;;;;;;;7.25;5.15;;;18.10;55.90;;;;;;4953714;28;20059;-66
2021/11/10 09:56:58;;;;;;;6.35;5.38;;;18.10;55.90;;;;;;4948106;28;20031;-64
2021/11/10 09:59:24;;;;;;;7.13;5.07;;;18.10;55.90;;;;;;4952483;28;20681;-64
2021/11/10 10:01:49;;;;;;;6.60;4.97;;;18.00;55.80;;;;;;4929461;28;20031;-64
2021/11/10 10:04:15;;;;;;;6.50;4.55;;;18.00;55.90;;;;;;4953617;28;20454;-64
2021/11/10 10:06:41;;;;;;;6.38;5.07;;;18.00;55.90;;;;;;4932847;28;20027;-64
2021/11/10 10:09:06;;;;;;;6.45;5.35;;;18.00;55.90;;;;;;4956984;28;20118;-65
2021/11/10 10:11:32;;;;;;;5.50;4.40;;;18.00;55.90;;;;;;4952658;28;20031;-64
2021/11/10 10:13:58;;;;;;;5.55;4.30;;;18.00;55.90;;;;;;4954791;28;20502;-64
2021/11/10 10:16:25;;;;;;;5.50;4.72;;;18.00;55.90;;;;;;4956034;28;20035;-65
2021/11/10 10:18:50;;;;;;;5.18;4.38;;;18.00;55.90;;;;;;4954447;28;20027;-64
2021/11/10 10:21:18;;;;;;;6.15;4.90;;;18.00;55.90;;;;;;4958302;28;20134;-64
2021/11/10 10:23:45;;;;;;;5.93;4.75;;;18.00;55.90;;;;;;4958075;28;20030;-64
2021/11/10 10:26:22;;;;;;;5.78;4.45;;;18.00;55.90;;;;;;4948960;28;20047;-64
2021/11/10 10:28:49;;;;;;;5.65;4.47;;;18.00;55.90;;;;;;4953811;28;20718;-62
2021/11/10 10:31:17;;;;;;;4.57;4.18;;;18.00;56.00;;;;;;4948794;28;20556;-64
2021/11/10 10:33:44;;;;;;;5.53;4.38;;;18.00;55.90;;;;;;4947794;28;20045;-65
2021/11/10 10:36:21;;;;;;;4.82;4.05;;;18.00;55.90;;;;;;4956689;28;20089;-65
2021/11/10 10:38:56;;;;;;;5.32;4.78;;;18.00;55.90;;;;;;4976129;28;20159;-64
2021/11/10 10:41:25;;;;;;;;;;;17.90;55.90;;;;;;4957132;28;20043;-64
2021/11/10 10:43:54;;;;;;;5.75;4.28;;;18.00;56.00;;;;;;4953598;28;19964;-65
2021/11/10 10:46:29;;;;;;;5.60;4.03;;;17.90;56.00;;;;;;4945965;28;20101;-63
2021/11/10 10:49:15;;;;;;;4.88;3.90;;;18.00;56.00;;;;;;4954598;28;20045;-64
2021/11/10 10:51:43;;;;;;;6.35;4.22;;;18.00;56.00;;;;;;4950830;28;20035;-64
2021/11/10 10:54:09;;;;;;;4.80;3.88;;;18.00;56.00;;;;;;4946085;28;20070;-64
2021/11/10 10:56:36;;;;;;;4.65;3.97;;;18.00;55.90;;;;;;4950399;28;20094;-64
2021/11/10 10:59:08;;;;;;;5.88;4.57;;;18.00;56.00;;;;;;4950397;28;20526;-63
2021/11/10 11:01:35;;;;;;;5.20;3.40;;;18.00;56.10;;;;;;4957101;28;20475;-64
2021/11/10 11:04:03;;;;;;;5.03;3.92;;;17.90;56.00;;;;;;4955546;28;20114;-62
2021/11/10 11:06:36;;;;;;;4.65;4.03;;;17.90;56.00;;;;;;4955852;28;20039;-64
2021/11/10 11:09:12;;;;;;;5.13;3.67;;;17.90;56.00;;;;;;4951874;28;20031;-65
2021/11/10 11:11:43;;;;;;;5.30;4.03;;;17.90;56.00;;;;;;4958052;28;20058;-63
2021/11/10 11:14:15;;;;;;;4.65;3.70;;;17.90;56.10;;;;;;4957362;28;20028;-64
2021/11/10 11:16:42;;;;;;;4.80;3.83;;;17.90;56.10;;;;;;4956158;28;20081;-66
2021/11/10 11:19:11;;;;;;;4.60;3.42;;;17.90;56.10;;;;;;4964635;28;20493;-65
2021/11/10 11:21:50;;;;;;;5.68;3.70;;;17.90;56.00;;;;;;4964947;28;20035;-61
2021/11/10 11:24:32;;;;;;;4.35;3.60;;;17.90;56.10;;;;;;4964394;28;20030;-66
2021/11/10 11:27:30;;;;;;;4.18;3.63;;;17.90;56.10;;;;;;4951027;28;20629;-66
2021/11/10 11:30:13;;;;;;;5.85;4.22;;;17.90;56.10;;;;;;4973284;28;20180;-65
2021/11/10 11:32:41;;;;;;;4.45;3.70;;;17.90;56.00;;;;;;4943953;28;20098;-65
2021/11/10 11:35:09;;;;;;;3.88;3.53;;;17.90;56.10;;;;;;4947503;28;20457;-64
2021/11/10 11:37:34;;;;;;;5.03;4.10;;;17.90;56.10;;;;;;4954937;28;20038;-65
2021/11/10 11:40:06;;;;;;;3.75;3.38;;;17.90;56.10;;;;;;4951123;28;20063;-65
2021/11/10 11:42:31;;;;;;;4.30;3.55;;;17.90;56.20;;;;;;4954957;28;20035;-64
2021/11/10 11:44:57;;;;;;;5.35;3.85;;;17.90;56.20;;;;;;4945953;28;20526;-64
2021/11/10 11:47:23;;;;;;;3.70;3.10;;;17.90;56.20;;;;;;4955491;28;20502;-65
2021/11/10 11:49:49;;;;;;;3.83;3.42;;;17.90;56.20;;;;;;4943485;28;20093;-63
2021/11/10 11:52:15;;;;;;;4.22;3.22;;;17.90;56.20;;;;;;4949063;28;20432;-65
2021/11/10 11:54:45;;;;;;;5.22;3.53;;;17.90;56.20;;;;;;4944464;28;20043;-65
2021/11/10 11:57:11;;;;;;;4.72;3.75;;;17.90;56.10;;;;;;4954389;28;20039;-65
2021/11/10 11:59:38;;;;;;;3.83;3.35;;;17.90;56.20;;;;;;4950272;28;20078;-65
2021/11/10 12:02:36;;;;;;;4.18;3.55;;;17.90;56.20;;;;;;4952794;28;20126;-64
2021/11/10 12:05:07;;;;;;;3.85;3.13;;;17.90;56.20;;;;;;4943355;28;20039;-64
2021/11/10 12:07:42;;;;;;;3.20;2.70;;;17.90;56.20;;;;;;4943735;28;20028;-64
2021/11/10 12:10:20;;;;;;;3.55;3.05;;;17.90;56.20;;;;;;4955274;28;20561;-63
2021/11/10 12:12:46;;;;;;;3.75;3.35;;;17.90;56.20;;;;;;4960781;28;20527;-65
2021/11/10 12:15:12;;;;;;;4.13;3.25;;;17.90;56.20;;;;;;4962808;28;20121;-67
2021/11/10 12:18:04;;;;;;;3.00;2.70;;;17.90;56.20;;;;;;4954094;28;20125;-66
2021/11/10 12:20:37;;;;;;;4.22;3.40;;;17.90;56.20;;;;;;4950795;28;20119;-65
2021/11/10 12:23:04;;;;;;;3.88;3.28;;;17.90;56.20;;;;;;4952302;28;20031;-64
2021/11/10 12:25:29;;;;;;;4.68;4.03;;;17.90;56.20;;;;;;4933692;28;20111;-66
2021/11/10 12:27:55;;;;;;;3.90;3.33;;;17.90;56.20;;;;;;4934646;28;20143;-65
2021/11/10 12:30:28;;;;;;;5.82;3.08;;;17.90;56.20;;;;;;4936172;28;20035;-64
2021/11/10 12:33:07;;;;;;;3.45;3.15;;;17.90;56.20;;;;;;4936622;28;20063;-63
2021/11/10 12:35:39;;;;;;;3.55;2.88;;;17.90;56.30;;;;;;4937013;28;20046;-63
2021/11/10 12:38:17;;;;;;;4.18;3.00;;;17.90;56.30;;;;;;4933373;28;20115;-65
2021/11/10 12:40:56;;;;;;;3.15;2.80;;;17.90;56.30;;;;;;4941233;28;20070;-64